MSC Federica — HPQE — position and weather

sailwx.info

Track history (hours):
 
Tides and Currents Weather Stations Pressure Air Temp Water Temp Dewpoint Dewpoint Depression Visibility Wind Speed Wind Dir Waves Ship Positions

MSC Federica

Last reported at 2018-Apr-20 02:07 UTC. Time now 2018-Apr-20 08:35 UTC.
Position N 01°13' E 103°28'.

Length 294 m; draft 11 m.

Type: Ship (hazmat cat A). MMSI: 357363000.

Date/timePositionNaut miles runAvg speedWind from/ knotsBaromVisibWave heightAir tempDewpointWater temp
2018-Apr-20 02:07N 01°13' E 103°28'217.0
2018-Apr-20 01:58N 01°12' E 103°30'714.8
2018-Apr-20 01:30N 01°12' E 103°37'4 7.0
2018-Apr-20 00:59N 01°13' E 103°41'5 9.8
2018-Apr-20 00:30N 01°16' E 103°44'1 2.7
2018-Apr-20 00:00N 01°16' E 103°45'0 0.1
2018-Apr-19 23:28N 01°17' E 103°45'0 0.0
2018-Apr-19 22:58N 01°17' E 103°45'0 0.1
2018-Apr-19 22:28N 01°17' E 103°46'0 0.1
2018-Apr-19 21:58N 01°17' E 103°45'0 0.0
2018-Apr-19 21:25N 01°17' E 103°45'0 0.0
2018-Apr-19 20:55N 01°17' E 103°45'0 0.0
2018-Apr-19 20:28N 01°17' E 103°45'0 0.1
2018-Apr-19 19:58N 01°17' E 103°46'0 0.1
2018-Apr-19 19:28N 01°17' E 103°45'0 0.1
2018-Apr-19 18:58N 01°17' E 103°46'0 0.1
2018-Apr-19 18:28N 01°17' E 103°45'0 0.0
2018-Apr-19 17:58N 01°17' E 103°45'0 0.1
2018-Apr-19 17:28N 01°17' E 103°46'0 0.0
2018-Apr-19 16:55N 01°17' E 103°46'0 0.1
2018-Apr-19 16:25N 01°17' E 103°45'0 0.0
2018-Apr-19 15:58N 01°17' E 103°45'0 0.0
2018-Apr-19 15:28N 01°17' E 103°45'0 0.0
2018-Apr-19 14:58N 01°17' E 103°45'0 0.0
2018-Apr-19 14:28N 01°17' E 103°45'0 0.1
2018-Apr-19 13:58N 01°17' E 103°46'0 0.0
2018-Apr-19 13:19N 01°17' E 103°46'0 0.2
2018-Apr-19 12:58N 01°17' E 103°45'0 0.0
2018-Apr-19 12:28N 01°17' E 103°45'0 0.0
2018-Apr-19 11:58N 01°17' E 103°45'0 0.0
2018-Apr-19 11:28N 01°17' E 103°45'0 0.0
2018-Apr-19 10:58N 01°17' E 103°45'0 0.1
2018-Apr-19 10:28N 01°17' E 103°46'0 0.0
2018-Apr-19 09:58N 01°17' E 103°46'0 0.1
2018-Apr-19 09:25N 01°17' E 103°45'0 0.0
2018-Apr-19 08:58N 01°17' E 103°45'0 0.0
2018-Apr-19 08:28N 01°17' E 103°45'0 0.0
2018-Apr-19 07:58N 01°17' E 103°45'0 0.0
2018-Apr-19 07:28N 01°17' E 103°45'0 0.0
2018-Apr-19 06:58N 01°17' E 103°45'0 0.0
2018-Apr-19 06:28N 01°17' E 103°45'0 0.0
2018-Apr-19 05:55N 01°17' E 103°45'0 0.1
2018-Apr-19 05:28N 01°17' E 103°46'0 0.1
2018-Apr-19 04:58N 01°17' E 103°45'0 0.0
2018-Apr-19 04:25N 01°17' E 103°45'0 0.0
2018-Apr-19 03:58N 01°17' E 103°45'0 0.0
2018-Apr-19 03:28N 01°17' E 103°45'0 0.0
2018-Apr-19 02:58N 01°17' E 103°45'0 0.0
2018-Apr-19 02:28N 01°17' E 103°45'0 0.0
2018-Apr-19 01:58N 01°17' E 103°45'0 0.0
2018-Apr-19 01:28N 01°17' E 103°45'0 0.0
2018-Apr-19 00:58N 01°17' E 103°45'0 0.0
2018-Apr-19 00:28N 01°17' E 103°45'0 0.0
2018-Apr-18 23:55N 01°17' E 103°45'0 0.0
2018-Apr-18 23:28N 01°17' E 103°45'0 0.0
2018-Apr-18 22:58N 01°17' E 103°45'0 0.0
2018-Apr-18 22:28N 01°17' E 103°45'0 0.0
2018-Apr-18 21:58N 01°17' E 103°45'0 0.0
2018-Apr-18 21:28N 01°17' E 103°45'0 0.0
2018-Apr-18 20:58N 01°17' E 103°45'0 0.0
2018-Apr-18 20:28N 01°17' E 103°45'0 0.0
2018-Apr-18 19:58N 01°17' E 103°45'0 0.0
2018-Apr-18 19:28N 01°17' E 103°45'0 0.0
2018-Apr-18 18:58N 01°17' E 103°45'0 0.0
2018-Apr-18 18:28N 01°17' E 103°45'0 0.0
2018-Apr-18 17:58N 01°17' E 103°45'0 0.1
2018-Apr-18 17:25N 01°17' E 103°46'0 0.1
2018-Apr-18 16:55N 01°17' E 103°45'0 0.0
2018-Apr-18 16:28N 01°17' E 103°45'0 0.0
2018-Apr-18 15:58N 01°17' E 103°45'0 0.0
2018-Apr-18 15:28N 01°17' E 103°45'0 0.0
2018-Apr-18 14:58N 01°17' E 103°45'0 0.1
2018-Apr-18 14:28N 01°17' E 103°46'0 0.6
2018-Apr-18 14:00N 01°16' E 103°45'3 6.6
2018-Apr-18 13:30N 01°14' E 103°47'611.8
2018-Apr-18 13:00N 01°13' E 103°53'4 7.5
2018-Apr-18 12:28N 01°15' E 103°57'5 9.6
2018-Apr-18 11:59N 01°16' E 104°02'  
2018-Apr-15 06:56N 23°23' E 117°40'1422.1
2018-Apr-15 06:18N 23°32' E 117°53'2022.3
2018-Apr-15 05:24N 23°47' E 118°07'49115.1
2018-Apr-13 20:50N 31°19' E 121°45'412.6
2018-Apr-13 20:29N 31°21' E 121°40'4 0.2
2018-Apr-13 03:32N 31°19' E 121°44'0 4.7
2018-Apr-13 03:28N 31°19' E 121°45'710.4
2018-Apr-13 02:46N 31°16' E 121°53'412.6
2018-Apr-13 02:28N 31°15' E 121°57'715.4
2018-Apr-13 02:00N 31°14' E 122°05'4 8.0
2018-Apr-13 01:27N 31°12' E 122°10'613.7
2018-Apr-13 01:01N 31°08' E 122°15'1711.4
2018-Apr-12 23:33N 31°07' E 122°35'1 4.2
2018-Apr-12 23:23N 31°07' E 122°35'3 1.9
2018-Apr-12 21:50N 31°10' E 122°37'0 0.1
2018-Apr-12 19:55N 31°10' E 122°37'0 0.0
2018-Apr-12 18:34N 31°10' E 122°37'0 0.0
2018-Apr-12 08:47N 31°10' E 122°37'0 0.0
2018-Apr-11 17:25N 31°10' E 122°37'  
Track history (hours):
 
Tides and Currents Weather Stations Pressure Air Temp Water Temp Dewpoint Dewpoint Depression Visibility Wind Speed Wind Dir Waves Ship Positions

MSC Federica

Last reported at 2018-Apr-20 02:07 UTC. Time now 2018-Apr-20 08:35 UTC.
Position N 01°13' E 103°28'.

Length 294 m; draft 11 m.

Type: Ship (hazmat cat A). MMSI: 357363000.

Date/timePositionNaut miles runAvg speedWind from/ knotsBaromVisibWave heightAir tempDewpointWater temp
2018-Apr-20 02:07N 01°13' E 103°28'217.0
2018-Apr-20 01:58N 01°12' E 103°30'714.8
2018-Apr-20 01:30N 01°12' E 103°37'4 7.0
2018-Apr-20 00:59N 01°13' E 103°41'5 9.8
2018-Apr-20 00:30N 01°16' E 103°44'1 2.7
2018-Apr-20 00:00N 01°16' E 103°45'0 0.1
2018-Apr-19 23:28N 01°17' E 103°45'0 0.0
2018-Apr-19 22:58N 01°17' E 103°45'0 0.1
2018-Apr-19 22:28N 01°17' E 103°46'0 0.1
2018-Apr-19 21:58N 01°17' E 103°45'0 0.0
2018-Apr-19 21:25N 01°17' E 103°45'0 0.0
2018-Apr-19 20:55N 01°17' E 103°45'0 0.0
2018-Apr-19 20:28N 01°17' E 103°45'0 0.1
2018-Apr-19 19:58N 01°17' E 103°46'0 0.1
2018-Apr-19 19:28N 01°17' E 103°45'0 0.1
2018-Apr-19 18:58N 01°17' E 103°46'0 0.1
2018-Apr-19 18:28N 01°17' E 103°45'0 0.0
2018-Apr-19 17:58N 01°17' E 103°45'0 0.1
2018-Apr-19 17:28N 01°17' E 103°46'0 0.0
2018-Apr-19 16:55N 01°17' E 103°46'0 0.1
2018-Apr-19 16:25N 01°17' E 103°45'0 0.0
2018-Apr-19 15:58N 01°17' E 103°45'0 0.0
2018-Apr-19 15:28N 01°17' E 103°45'0 0.0
2018-Apr-19 14:58N 01°17' E 103°45'0 0.0
2018-Apr-19 14:28N 01°17' E 103°45'0 0.1
2018-Apr-19 13:58N 01°17' E 103°46'0 0.0
2018-Apr-19 13:19N 01°17' E 103°46'0 0.2
2018-Apr-19 12:58N 01°17' E 103°45'0 0.0
2018-Apr-19 12:28N 01°17' E 103°45'0 0.0
2018-Apr-19 11:58N 01°17' E 103°45'0 0.0
2018-Apr-19 11:28N 01°17' E 103°45'0 0.0
2018-Apr-19 10:58N 01°17' E 103°45'0 0.1
2018-Apr-19 10:28N 01°17' E 103°46'0 0.0
2018-Apr-19 09:58N 01°17' E 103°46'0 0.1
2018-Apr-19 09:25N 01°17' E 103°45'0 0.0
2018-Apr-19 08:58N 01°17' E 103°45'0 0.0
2018-Apr-19 08:28N 01°17' E 103°45'0 0.0
2018-Apr-19 07:58N 01°17' E 103°45'0 0.0
2018-Apr-19 07:28N 01°17' E 103°45'0 0.0
2018-Apr-19 06:58N 01°17' E 103°45'0 0.0
2018-Apr-19 06:28N 01°17' E 103°45'0 0.0
2018-Apr-19 05:55N 01°17' E 103°45'0 0.1
2018-Apr-19 05:28N 01°17' E 103°46'0 0.1
2018-Apr-19 04:58N 01°17' E 103°45'0 0.0
2018-Apr-19 04:25N 01°17' E 103°45'0 0.0
2018-Apr-19 03:58N 01°17' E 103°45'0 0.0
2018-Apr-19 03:28N 01°17' E 103°45'0 0.0
2018-Apr-19 02:58N 01°17' E 103°45'0 0.0
2018-Apr-19 02:28N 01°17' E 103°45'0 0.0
2018-Apr-19 01:58N 01°17' E 103°45'0 0.0
2018-Apr-19 01:28N 01°17' E 103°45'0 0.0
2018-Apr-19 00:58N 01°17' E 103°45'0 0.0
2018-Apr-19 00:28N 01°17' E 103°45'0 0.0
2018-Apr-18 23:55N 01°17' E 103°45'0 0.0
2018-Apr-18 23:28N 01°17' E 103°45'0 0.0
2018-Apr-18 22:58N 01°17' E 103°45'0 0.0
2018-Apr-18 22:28N 01°17' E 103°45'0 0.0
2018-Apr-18 21:58N 01°17' E 103°45'0 0.0
2018-Apr-18 21:28N 01°17' E 103°45'0 0.0
2018-Apr-18 20:58N 01°17' E 103°45'0 0.0
2018-Apr-18 20:28N 01°17' E 103°45'0 0.0
2018-Apr-18 19:58N 01°17' E 103°45'0 0.0
2018-Apr-18 19:28N 01°17' E 103°45'0 0.0
2018-Apr-18 18:58N 01°17' E 103°45'0 0.0
2018-Apr-18 18:28N 01°17' E 103°45'0 0.0
2018-Apr-18 17:58N 01°17' E 103°45'0 0.1
2018-Apr-18 17:25N 01°17' E 103°46'0 0.1
2018-Apr-18 16:55N 01°17' E 103°45'0 0.0
2018-Apr-18 16:28N 01°17' E 103°45'0 0.0
2018-Apr-18 15:58N 01°17' E 103°45'0 0.0
2018-Apr-18 15:28N 01°17' E 103°45'0 0.0
2018-Apr-18 14:58N 01°17' E 103°45'0 0.1
2018-Apr-18 14:28N 01°17' E 103°46'0 0.6
2018-Apr-18 14:00N 01°16' E 103°45'3 6.6
2018-Apr-18 13:30N 01°14' E 103°47'611.8
2018-Apr-18 13:00N 01°13' E 103°53'4 7.5
2018-Apr-18 12:28N 01°15' E 103°57'5 9.6
2018-Apr-18 11:59N 01°16' E 104°02'  
2018-Apr-15 06:56N 23°23' E 117°40'1422.1
2018-Apr-15 06:18N 23°32' E 117°53'2022.3
2018-Apr-15 05:24N 23°47' E 118°07'49115.1
2018-Apr-13 20:50N 31°19' E 121°45'412.6
2018-Apr-13 20:29N 31°21' E 121°40'4 0.2
2018-Apr-13 03:32N 31°19' E 121°44'0 4.7
2018-Apr-13 03:28N 31°19' E 121°45'710.4
2018-Apr-13 02:46N 31°16' E 121°53'412.6
2018-Apr-13 02:28N 31°15' E 121°57'715.4
2018-Apr-13 02:00N 31°14' E 122°05'4 8.0
2018-Apr-13 01:27N 31°12' E 122°10'613.7
2018-Apr-13 01:01N 31°08' E 122°15'1711.4
2018-Apr-12 23:33N 31°07' E 122°35'1 4.2
2018-Apr-12 23:23N 31°07' E 122°35'3 1.9
2018-Apr-12 21:50N 31°10' E 122°37'0 0.1
2018-Apr-12 19:55N 31°10' E 122°37'0 0.0
2018-Apr-12 18:34N 31°10' E 122°37'0 0.0
2018-Apr-12 08:47N 31°10' E 122°37'0 0.0
2018-Apr-11 17:25N 31°10' E 122°37'  

Dump ship's entire track history